createdAt,value
2019-02-15T00:01:01.629Z,100760.78
2019-02-15T00:03:32.117Z,100759.44
2019-02-15T00:06:02.611Z,100756.36
2019-02-15T00:08:33.135Z,100757.41
2019-02-15T00:11:03.627Z,100752.99
2019-02-15T00:13:34.225Z,100758.70
2019-02-15T00:16:04.768Z,100758.48
2019-02-15T00:18:41.482Z,100758.63
2019-02-15T00:21:26.295Z,100759.98
2019-02-15T00:23:56.775Z,100758.81
2019-02-15T00:26:27.226Z,100762.66
2019-02-15T00:28:57.676Z,100760.36
2019-02-15T00:31:28.167Z,100762.05
2019-02-15T00:33:58.611Z,100762.97
2019-02-15T00:36:29.828Z,100765.56
2019-02-15T00:39:00.262Z,100766.23
2019-02-15T00:41:30.721Z,100763.14
2019-02-15T00:44:01.215Z,100767.81
2019-02-15T00:46:50.519Z,100763.45
2019-02-15T00:49:31.120Z,100762.09
2019-02-15T00:52:26.472Z,100766.17
2019-02-15T00:55:18.581Z,100756.34
2019-02-15T00:58:17.171Z,100757.28
2019-02-15T01:00:58.870Z,100754.09
2019-02-15T01:03:57.380Z,100763.70
2019-02-15T01:06:45.381Z,100758.97
2019-02-15T01:09:34.666Z,100753.77
2019-02-15T01:12:14.903Z,100750.03
2019-02-15T01:14:45.353Z,100751.74
2019-02-15T01:17:15.801Z,100753.45
2019-02-15T01:19:46.297Z,100747.80
2019-02-15T01:22:16.749Z,100745.75
2019-02-15T01:24:47.253Z,100748.32
2019-02-15T01:27:51.596Z,100752.02
2019-02-15T01:30:40.123Z,100744.84
2019-02-15T01:33:28.028Z,100747.32
2019-02-15T01:36:23.437Z,100748.21
2019-02-15T01:39:09.619Z,100746.70
2019-02-15T01:42:04.995Z,100745.92
2019-02-15T01:44:57.102Z,100749.27
2019-02-15T01:47:34.687Z,100748.16
2019-02-15T01:50:05.538Z,100747.67
2019-02-15T01:52:36.030Z,100748.67
2019-02-15T01:55:06.755Z,100743.32
2019-02-15T01:57:37.210Z,100739.97
2019-02-15T02:00:10.064Z,100737.22
2019-02-15T02:02:40.564Z,100743.89
2019-02-15T02:05:11.099Z,100741.34
2019-02-15T02:07:41.601Z,100745.50
2019-02-15T02:10:12.683Z,100733.25
2019-02-15T02:12:43.146Z,100733.39
2019-02-15T02:15:13.723Z,100740.14
2019-02-15T02:17:44.171Z,100740.02
2019-02-15T02:20:14.799Z,100741.20
2019-02-15T02:22:45.244Z,100737.68
2019-02-15T02:25:15.762Z,100745.75
2019-02-15T02:27:46.218Z,100749.15
2019-02-15T02:30:16.816Z,100743.80
2019-02-15T02:32:47.277Z,100745.31
2019-02-15T02:35:17.736Z,100749.13
2019-02-15T02:37:48.246Z,100752.47
2019-02-15T02:40:18.719Z,100746.52
2019-02-15T02:42:49.215Z,100750.73
2019-02-15T02:45:19.728Z,100749.95
2019-02-15T02:47:50.334Z,100741.72
2019-02-15T02:50:20.790Z,100744.41
2019-02-15T02:52:51.312Z,100746.48
2019-02-15T02:55:21.769Z,100740.72
2019-02-15T02:57:52.262Z,100749.61
2019-02-15T03:00:22.721Z,100738.11
2019-02-15T03:02:53.176Z,100743.52
2019-02-15T03:05:23.697Z,100743.79
2019-02-15T03:07:54.198Z,100749.52
2019-02-15T03:10:24.757Z,100753.59
2019-02-15T03:12:55.263Z,100758.20
2019-02-15T03:15:25.721Z,100753.70
2019-02-15T03:17:56.243Z,100762.72
2019-02-15T03:20:31.183Z,100763.09
2019-02-15T03:22:58.883Z,100767.19
2019-02-15T03:25:29.395Z,100764.03
2019-02-15T03:27:59.919Z,100759.97
2019-02-15T03:30:30.432Z,100755.02
2019-02-15T03:33:00.958Z,100756.53
2019-02-15T03:35:31.481Z,100757.73
2019-02-15T03:38:19.235Z,100760.59
2019-02-15T03:40:52.944Z,100757.53
2019-02-15T03:43:23.418Z,100757.88
2019-02-15T03:45:54.076Z,100759.16
2019-02-15T03:48:24.614Z,100761.68
2019-02-15T03:50:55.242Z,100761.52
2019-02-15T03:53:25.756Z,100760.96
2019-02-15T03:55:56.478Z,100761.94
2019-02-15T03:58:26.943Z,100766.63
2019-02-15T04:00:57.572Z,100769.13
2019-02-15T04:03:30.960Z,100769.27
2019-02-15T04:06:01.445Z,100775.02
2019-02-15T04:08:31.952Z,100772.17
2019-02-15T04:11:02.431Z,100778.25
2019-02-15T04:13:32.949Z,100775.25
2019-02-15T04:16:03.470Z,100776.05
2019-02-15T04:18:33.935Z,100780.80
2019-02-15T04:21:04.430Z,100774.12
2019-02-15T04:23:34.968Z,100789.93
2019-02-15T04:26:05.449Z,100781.86
2019-02-15T04:28:35.956Z,100793.28
2019-02-15T04:31:06.475Z,100789.87
2019-02-15T04:33:36.990Z,100792.95
2019-02-15T04:36:07.622Z,100792.59
2019-02-15T04:38:38.118Z,100796.02
2019-02-15T04:41:08.639Z,100789.27
2019-02-15T04:43:39.160Z,100795.88
2019-02-15T04:46:09.624Z,100789.66
2019-02-15T04:48:40.134Z,100792.52
2019-02-15T04:51:10.653Z,100792.69
2019-02-15T04:53:41.112Z,100791.34
2019-02-15T04:56:11.680Z,100786.00
2019-02-15T04:58:42.197Z,100784.85
2019-02-15T05:01:12.665Z,100775.25
2019-02-15T05:03:43.177Z,100779.98
2019-02-15T05:06:13.664Z,100790.38
2019-02-15T05:08:44.116Z,100797.52
2019-02-15T05:11:14.635Z,100798.55
2019-02-15T05:13:45.111Z,100798.73
2019-02-15T05:16:15.633Z,100795.90
2019-02-15T05:18:46.141Z,100795.22
2019-02-15T05:21:16.627Z,100792.63
2019-02-15T05:23:47.145Z,100795.72
2019-02-15T05:26:17.609Z,100801.08
2019-02-15T05:28:48.107Z,100803.73
2019-02-15T05:31:18.612Z,100811.44
2019-02-15T05:33:49.126Z,100813.44
2019-02-15T05:36:19.564Z,100810.45
2019-02-15T05:38:50.046Z,100814.11
2019-02-15T05:41:20.543Z,100810.94
2019-02-15T05:43:51.016Z,100813.20
2019-02-15T05:46:21.533Z,100816.03
2019-02-15T05:48:51.995Z,100819.53
2019-02-15T05:51:22.470Z,100822.17
2019-02-15T05:53:53.147Z,100830.41
2019-02-15T05:56:23.661Z,100834.23
2019-02-15T05:58:54.205Z,100836.38
2019-02-15T06:01:25.905Z,100844.63
2019-02-15T06:03:56.374Z,100848.45
2019-02-15T06:06:26.903Z,100850.92
2019-02-15T06:08:57.394Z,100851.22
2019-02-15T06:11:27.893Z,100854.94
2019-02-15T06:13:58.417Z,100857.58
2019-02-15T06:16:28.865Z,100859.78
2019-02-15T06:18:59.336Z,100863.11
2019-02-15T06:21:29.849Z,100876.29
2019-02-15T06:24:00.365Z,100879.97
2019-02-15T06:26:30.837Z,100869.59
2019-02-15T06:29:01.346Z,100876.36
2019-02-15T06:31:31.838Z,100883.34
2019-02-15T06:34:02.365Z,100884.73
2019-02-15T06:36:36.142Z,100882.84
2019-02-15T06:39:08.800Z,100888.63
2019-02-15T06:41:39.359Z,100784.69
2019-02-15T06:44:09.872Z,100890.70
2019-02-15T06:46:40.527Z,100894.59
2019-02-15T06:49:11.061Z,100894.06
2019-02-15T06:51:41.540Z,100903.81
2019-02-15T06:54:12.080Z,100902.70
2019-02-15T06:56:42.607Z,100905.34
2019-02-15T06:59:35.161Z,100906.30
2019-02-15T07:02:28.986Z,100903.34
2019-02-15T07:05:30.589Z,100907.98
2019-02-15T07:08:01.133Z,100911.19
2019-02-15T07:10:31.678Z,100906.60
2019-02-15T07:13:02.183Z,100922.39
2019-02-15T07:15:33.978Z,100918.87
2019-02-15T07:18:04.598Z,100919.98
2019-02-15T07:20:35.047Z,100930.45
2019-02-15T07:23:05.508Z,100929.28
2019-02-15T07:25:36.069Z,100926.75
2019-02-15T07:28:06.546Z,100931.10
2019-02-15T07:30:37.060Z,100936.91
2019-02-15T07:33:07.610Z,100936.91
2019-02-15T07:35:38.064Z,100946.62
2019-02-15T07:38:08.614Z,100820.09
2019-02-15T07:40:39.064Z,100949.27
2019-02-15T07:43:09.683Z,100955.67
2019-02-15T07:45:42.903Z,100962.53
2019-02-15T07:48:12.431Z,100954.86
2019-02-15T07:50:42.998Z,100964.91
2019-02-15T07:53:13.512Z,100961.67
2019-02-15T07:55:43.977Z,100964.95
2019-02-15T07:58:14.495Z,100967.98
2019-02-15T08:00:45.022Z,100965.67
2019-02-15T08:03:15.479Z,100969.94
2019-02-15T08:05:46.002Z,100966.87
2019-02-15T08:08:16.490Z,100966.05
2019-02-15T08:10:46.983Z,100958.44
2019-02-15T08:13:17.451Z,100967.59
2019-02-15T08:15:52.128Z,100969.59
2019-02-15T08:18:20.128Z,100975.73
2019-02-15T08:20:50.629Z,100967.78
2019-02-15T08:23:21.151Z,100972.16
2019-02-15T08:25:51.632Z,100971.45
2019-02-15T08:28:22.161Z,100971.03
2019-02-15T08:30:52.659Z,100971.66
2019-02-15T08:33:23.212Z,100974.06
2019-02-15T08:35:53.690Z,100974.59
2019-02-15T08:38:24.209Z,100971.51
2019-02-15T08:40:54.683Z,100976.75
2019-02-15T08:43:25.246Z,100984.31
2019-02-15T08:46:00.685Z,100990.75
2019-02-15T08:48:27.936Z,100993.14
2019-02-15T08:50:58.448Z,100993.07
2019-02-15T08:53:28.916Z,100985.30
2019-02-15T08:55:59.424Z,100991.48
2019-02-15T08:58:29.984Z,100992.76
2019-02-15T09:01:00.493Z,100986.74
2019-02-15T09:03:31.131Z,100997.80
2019-02-15T09:06:01.636Z,100999.43
2019-02-15T09:08:32.096Z,100999.70
2019-02-15T09:11:02.631Z,100996.13
2019-02-15T09:13:33.272Z,101001.80
2019-02-15T09:16:10.101Z,101002.66
2019-02-15T09:18:35.988Z,101002.95
2019-02-15T09:21:06.495Z,101008.36
2019-02-15T09:23:36.964Z,100996.83
2019-02-15T09:26:07.474Z,100995.45
2019-02-15T09:28:44.772Z,100996.05
2019-02-15T09:31:15.327Z,100999.42
2019-02-15T09:33:45.807Z,100998.45
2019-02-15T09:36:16.342Z,100993.14
2019-02-15T09:38:47.044Z,100999.87
2019-02-15T09:41:17.512Z,101009.15
2019-02-15T09:43:48.076Z,101002.01
2019-02-15T09:46:20.263Z,101008.53
2019-02-15T09:48:50.862Z,101014.72
2019-02-15T09:51:21.324Z,101009.86
2019-02-15T09:53:51.902Z,101011.09
2019-02-15T09:56:22.427Z,101013.91
2019-02-15T09:58:53.024Z,101011.22
2019-02-15T10:01:23.705Z,101013.41
2019-02-15T10:03:55.304Z,101006.77
2019-02-15T10:06:25.839Z,101007.31
2019-02-15T10:08:56.344Z,101002.73
2019-02-15T10:11:26.826Z,101002.80
2019-02-15T10:13:57.440Z,101004.86
2019-02-15T10:16:30.828Z,101002.54
2019-02-15T10:19:00.140Z,101007.34
2019-02-15T10:21:30.615Z,101007.06
2019-02-15T10:24:01.120Z,101003.05
2019-02-15T10:26:31.632Z,101004.91
2019-02-15T10:29:02.111Z,101004.15
2019-02-15T10:31:32.837Z,101004.05
2019-02-15T10:34:04.584Z,101004.23
2019-02-15T10:36:35.115Z,101004.05
2019-02-15T10:39:06.822Z,101006.50
2019-02-15T10:41:37.394Z,101004.37
2019-02-15T10:44:07.959Z,101006.04
2019-02-15T10:46:38.468Z,101011.27
2019-02-15T10:49:08.980Z,101012.22
2019-02-15T10:51:46.261Z,101009.91
2019-02-15T10:54:16.760Z,101001.93
2019-02-15T10:56:47.225Z,101008.56
2019-02-15T10:59:17.739Z,101004.50
2019-02-15T11:01:48.279Z,101002.23
2019-02-15T11:04:18.745Z,100998.52
2019-02-15T11:06:51.768Z,101004.64
2019-02-15T11:09:22.264Z,101002.95
2019-02-15T11:11:52.724Z,100995.05
2019-02-15T11:14:23.197Z,100990.53
2019-02-15T11:16:53.650Z,100979.84
2019-02-15T11:19:24.163Z,100989.87
2019-02-15T11:21:54.752Z,100991.44
2019-02-15T11:24:25.294Z,100988.88
2019-02-15T11:26:55.777Z,100989.52
2019-02-15T11:29:26.280Z,100994.39
2019-02-15T11:31:56.776Z,100993.73
2019-02-15T11:34:27.940Z,100995.27
2019-02-15T11:36:58.503Z,100992.00
2019-02-15T11:39:28.967Z,101001.47
2019-02-15T11:41:59.595Z,100997.81
2019-02-15T11:44:30.261Z,101003.53
2019-02-15T11:47:00.785Z,101003.22
2019-02-15T11:49:31.292Z,101002.52
2019-02-15T11:52:01.812Z,100999.59
2019-02-15T11:54:32.295Z,100999.41
2019-02-15T11:57:02.839Z,100996.01
2019-02-15T11:59:33.600Z,100997.11
2019-02-15T12:02:06.531Z,100882.41
2019-02-15T12:04:36.279Z,101004.47
2019-02-15T12:07:06.815Z,101008.66
2019-02-15T12:09:37.342Z,101007.91
2019-02-15T12:12:10.656Z,101001.23
2019-02-15T12:14:40.075Z,101008.75
2019-02-15T12:17:10.543Z,101009.63
2019-02-15T12:19:41.073Z,101001.23
2019-02-15T12:22:11.522Z,101010.05
2019-02-15T12:24:42.028Z,101006.75
2019-02-15T12:27:12.523Z,101010.05
2019-02-15T12:29:43.049Z,101007.59
2019-02-15T12:32:13.552Z,101005.41
2019-02-15T12:34:44.144Z,100999.78
2019-02-15T12:37:14.663Z,101000.42
2019-02-15T12:39:45.444Z,101006.48
2019-02-15T12:42:15.983Z,100995.42
2019-02-15T12:44:46.500Z,101006.94
2019-02-15T12:47:17.005Z,100894.06
2019-02-15T12:49:47.458Z,101004.70
2019-02-15T12:52:17.988Z,101004.88
2019-02-15T12:54:49.493Z,101002.33
2019-02-15T12:57:20.057Z,101009.34
2019-02-15T12:59:50.528Z,101007.00
2019-02-15T13:02:21.041Z,101010.94
2019-02-15T13:04:51.553Z,101012.63
2019-02-15T13:07:22.047Z,101014.41
2019-02-15T13:09:52.632Z,100902.36
2019-02-15T13:12:23.174Z,101008.30
2019-02-15T13:14:53.647Z,101010.16
2019-02-15T13:17:24.986Z,101006.17
2019-02-15T13:19:55.692Z,101012.22
2019-02-15T13:22:26.199Z,101015.39
2019-02-15T13:24:56.784Z,101012.16
2019-02-15T13:27:27.297Z,101013.23
2019-02-15T13:29:57.906Z,101011.12
2019-02-15T13:32:28.409Z,101013.70
2019-02-15T13:34:58.868Z,101009.92
2019-02-15T13:37:29.380Z,101010.28
2019-02-15T13:39:59.907Z,101011.52
2019-02-15T13:42:30.548Z,101002.89
2019-02-15T13:45:01.177Z,101014.03
2019-02-15T13:47:34.700Z,101007.05
2019-02-15T13:50:04.050Z,101003.82
2019-02-15T13:52:34.578Z,101000.09
2019-02-15T13:55:05.245Z,101006.05
2019-02-15T13:57:35.808Z,101001.91
2019-02-15T14:00:06.752Z,101004.80
2019-02-15T14:02:37.224Z,100996.30
2019-02-15T14:05:09.691Z,101004.05
2019-02-15T14:07:40.499Z,100989.45
2019-02-15T14:10:14.917Z,101003.06
2019-02-15T14:12:45.471Z,101015.03
2019-02-15T14:15:15.961Z,101002.91
2019-02-15T14:17:48.445Z,101014.48
2019-02-15T14:20:18.936Z,101010.47
2019-02-15T14:22:49.414Z,101014.36
2019-02-15T14:25:19.921Z,101011.45
2019-02-15T14:27:50.475Z,101015.47
2019-02-15T14:30:20.943Z,101011.97
2019-02-15T14:32:51.441Z,101022.92
2019-02-15T14:35:21.984Z,101015.91
2019-02-15T14:37:52.466Z,101017.16
2019-02-15T14:40:22.993Z,101018.12
2019-02-15T14:42:53.478Z,101017.42
2019-02-15T14:45:24.026Z,101024.06
2019-02-15T14:47:55.516Z,101023.81
2019-02-15T14:50:26.017Z,101023.73
2019-02-15T14:52:56.573Z,101021.89
2019-02-15T14:55:27.304Z,101017.96
2019-02-15T14:57:57.851Z,101024.59
2019-02-15T15:00:28.773Z,101022.22
2019-02-15T15:02:59.320Z,101025.73
2019-02-15T15:05:29.835Z,101027.86
2019-02-15T15:08:00.388Z,101034.41
2019-02-15T15:10:30.947Z,101028.95
2019-02-15T15:13:01.622Z,101032.80
2019-02-15T15:15:32.143Z,101045.57
2019-02-15T15:18:12.703Z,100870.23
2019-02-15T15:20:36.320Z,101042.77
2019-02-15T15:23:06.861Z,100950.83
2019-02-15T15:25:37.373Z,101046.20
2019-02-15T15:28:07.958Z,101047.34
2019-02-15T15:30:38.519Z,101055.69
2019-02-15T15:33:09.071Z,101054.42
2019-02-15T15:35:41.992Z,101060.37
2019-02-15T15:38:12.490Z,101055.02
2019-02-15T15:40:42.946Z,101057.02
2019-02-15T15:43:13.448Z,101067.92
2019-02-15T15:45:43.922Z,101065.57
2019-02-15T15:48:22.449Z,101061.56
2019-02-15T15:50:46.648Z,101060.20
2019-02-15T15:53:17.119Z,101060.59
2019-02-15T15:55:47.653Z,101064.29
2019-02-15T15:58:18.137Z,101069.92
2019-02-15T16:00:48.772Z,101073.63
2019-02-15T16:03:19.256Z,101068.26
2019-02-15T16:05:49.767Z,100957.78
2019-02-15T16:08:20.218Z,101083.23
2019-02-15T16:10:50.722Z,101088.66
2019-02-15T16:13:21.243Z,101093.07
2019-02-15T16:15:51.756Z,101087.05
2019-02-15T16:18:22.225Z,101089.89
2019-02-15T16:20:52.716Z,101094.45
2019-02-15T16:23:23.222Z,101095.14
2019-02-15T16:25:53.687Z,101099.38
2019-02-15T16:28:24.190Z,101102.10
2019-02-15T16:30:54.701Z,101099.75
2019-02-15T16:33:25.256Z,101106.30
2019-02-15T16:35:55.717Z,101112.55
2019-02-15T16:38:26.202Z,101123.20
2019-02-15T16:40:56.660Z,101123.59
2019-02-15T16:43:27.165Z,101128.64
2019-02-15T16:45:57.638Z,101125.27
2019-02-15T16:48:28.122Z,101131.83
2019-02-15T16:50:58.567Z,101135.02
2019-02-15T16:53:29.075Z,101138.91
2019-02-15T16:55:59.523Z,101141.09
2019-02-15T16:58:30.131Z,101145.11
2019-02-15T17:01:00.637Z,101150.52
2019-02-15T17:03:31.146Z,101152.53
2019-02-15T17:06:01.656Z,101148.81
2019-02-15T17:08:32.156Z,101155.34
2019-02-15T17:11:02.734Z,101161.26
2019-02-15T17:13:34.680Z,101160.28
2019-02-15T17:16:05.223Z,101170.86
2019-02-15T17:18:35.728Z,101176.10
2019-02-15T17:21:06.196Z,101173.24
2019-02-15T17:23:36.698Z,101175.45
2019-02-15T17:26:07.154Z,101172.58
2019-02-15T17:28:39.404Z,101180.30
2019-02-15T17:31:09.892Z,101173.41
2019-02-15T17:33:40.399Z,101171.36
2019-02-15T17:36:10.875Z,101173.88
2019-02-15T17:38:42.942Z,101174.69
2019-02-15T17:41:13.519Z,101174.55
2019-02-15T17:43:43.972Z,101183.96
2019-02-15T17:46:14.468Z,101179.23
2019-02-15T17:48:44.929Z,101181.83
2019-02-15T17:51:15.381Z,101184.66
2019-02-15T17:53:45.883Z,101192.30
2019-02-15T17:56:17.143Z,101194.98
2019-02-15T17:58:47.658Z,101198.88
2019-02-15T18:01:18.118Z,101197.02
2019-02-15T18:03:48.617Z,101194.98
2019-02-15T18:06:19.080Z,101201.06
2019-02-15T18:08:49.600Z,101192.64
2019-02-15T18:11:20.059Z,101198.70
2019-02-15T18:13:50.572Z,101202.38
2019-02-15T18:16:21.029Z,101196.30
2019-02-15T18:18:51.495Z,101205.40
2019-02-15T18:21:21.984Z,101201.67
2019-02-15T18:23:52.456Z,101200.67
2019-02-15T18:26:22.965Z,101202.38
2019-02-15T18:28:53.464Z,101204.73
2019-02-15T18:31:23.933Z,101201.36
2019-02-15T18:33:54.435Z,101195.45
2019-02-15T18:36:24.891Z,101195.45
2019-02-15T18:38:55.406Z,101075.03
2019-02-15T18:41:25.852Z,101203.68
2019-02-15T18:43:56.304Z,101200.98
2019-02-15T18:46:26.796Z,101203.37
2019-02-15T18:48:57.247Z,101207.75
2019-02-15T18:51:27.801Z,101203.70
2019-02-15T18:53:58.257Z,101205.56
2019-02-15T18:56:28.776Z,101207.06
2019-02-15T18:58:59.242Z,101209.78
2019-02-15T19:01:29.755Z,101213.14
2019-02-15T19:04:00.274Z,101216.84
2019-02-15T19:06:30.719Z,101219.69
2019-02-15T19:09:01.226Z,101220.89
2019-02-15T19:11:31.757Z,101220.54
2019-02-15T19:14:04.768Z,101225.02
2019-02-15T19:16:34.372Z,101231.75
2019-02-15T19:19:05.927Z,101229.05
2019-02-15T19:21:36.443Z,101231.59
2019-02-15T19:24:06.913Z,101232.05
2019-02-15T19:26:37.394Z,101229.86
2019-02-15T19:29:08.155Z,101225.65
2019-02-15T19:31:38.681Z,101229.84
2019-02-15T19:34:09.258Z,101235.78
2019-02-15T19:36:39.716Z,101234.57
2019-02-15T19:39:10.220Z,101234.73
2019-02-15T19:41:40.792Z,101114.81
2019-02-15T19:44:11.285Z,101235.41
2019-02-15T19:46:41.783Z,101233.05
2019-02-15T19:49:12.285Z,101233.22
2019-02-15T19:51:42.789Z,101228.92
2019-02-15T19:54:13.333Z,101241.53
2019-02-15T19:56:43.852Z,101236.50
2019-02-15T19:59:14.319Z,101238.00
2019-02-15T20:01:44.834Z,101239.17
2019-02-15T20:04:15.341Z,101245.23
2019-02-15T20:06:45.804Z,101244.73
2019-02-15T20:09:16.320Z,101241.34
2019-02-15T20:11:47.068Z,101239.31
2019-02-15T20:14:17.602Z,101242.67
2019-02-15T20:16:48.058Z,101250.91
2019-02-15T20:19:18.519Z,101245.52
2019-02-15T20:21:49.092Z,101249.58
2019-02-15T20:24:19.588Z,101251.95
2019-02-15T20:26:50.049Z,101250.62
2019-02-15T20:29:20.520Z,101244.70
2019-02-15T20:31:50.984Z,101241.17
2019-02-15T20:34:21.485Z,101245.22
2019-02-15T20:36:52.029Z,101249.12
2019-02-15T20:39:22.487Z,101242.88
2019-02-15T20:41:52.977Z,101240.86
2019-02-15T20:44:23.425Z,101236.81
2019-02-15T20:46:53.927Z,101180.02
2019-02-15T20:49:24.434Z,101239.20
2019-02-15T20:51:54.898Z,101232.46
2019-02-15T20:54:25.392Z,101237.55
2019-02-15T20:56:55.906Z,101235.53
2019-02-15T20:59:26.415Z,101236.69
2019-02-15T21:01:56.945Z,101236.02
2019-02-15T21:04:27.402Z,101237.36
2019-02-15T21:06:57.924Z,101231.29
2019-02-15T21:09:28.441Z,101234.84
2019-02-15T21:11:58.955Z,101236.36
2019-02-15T21:14:29.430Z,101225.75
2019-02-15T21:16:59.946Z,101233.00
2019-02-15T21:19:30.452Z,101112.86
2019-02-15T21:22:00.923Z,101233.16
2019-02-15T21:24:31.417Z,101234.19
2019-02-15T21:27:01.862Z,101234.52
2019-02-15T21:29:32.376Z,101231.31
2019-02-15T21:32:02.979Z,101232.17
2019-02-15T21:34:33.518Z,101237.05
2019-02-15T21:37:03.974Z,101243.63
2019-02-15T21:39:34.430Z,101241.61
2019-02-15T21:42:04.923Z,101127.98
2019-02-15T21:44:35.376Z,101240.58
2019-02-15T21:47:05.876Z,101239.89
2019-02-15T21:49:38.397Z,101244.96
2019-02-15T21:52:08.614Z,101242.08
2019-02-15T21:54:39.063Z,101245.28
2019-02-15T21:57:09.671Z,101251.34
2019-02-15T21:59:40.162Z,101245.14
2019-02-15T22:02:10.771Z,101248.16
2019-02-15T22:04:41.276Z,101248.50
2019-02-15T22:07:11.820Z,101246.63
2019-02-15T22:09:42.273Z,101253.87
2019-02-15T22:12:12.733Z,101251.02
2019-02-15T22:14:43.233Z,101254.21
2019-02-15T22:17:13.676Z,101254.44
2019-02-15T22:19:44.174Z,101252.41
2019-02-15T22:22:14.605Z,101251.39
2019-02-15T22:24:45.010Z,101255.80
2019-02-15T22:27:15.512Z,101248.03
2019-02-15T22:29:45.926Z,101244.36
2019-02-15T22:32:16.429Z,101252.94
2019-02-15T22:34:46.955Z,101261.84
2019-02-15T22:37:17.408Z,101256.11
2019-02-15T22:39:47.948Z,101255.79
2019-02-15T22:42:18.415Z,101258.98
2019-02-15T22:44:48.926Z,101253.92
2019-02-15T22:47:19.380Z,101250.92
2019-02-15T22:49:49.984Z,101259.82
2019-02-15T22:52:20.489Z,101256.30
2019-02-15T22:54:50.951Z,101257.13
2019-02-15T22:57:21.409Z,101257.44
2019-02-15T22:59:54.612Z,101256.09
2019-02-15T23:02:24.007Z,101258.98
2019-02-15T23:04:54.450Z,101258.98
2019-02-15T23:07:24.858Z,101267.89
2019-02-15T23:09:55.366Z,101264.02
2019-02-15T23:12:25.840Z,101264.84
2019-02-15T23:14:56.287Z,101264.52
2019-02-15T23:17:26.738Z,101264.84
2019-02-15T23:19:57.236Z,101259.30
2019-02-15T23:22:27.707Z,101254.26
2019-02-15T23:24:58.288Z,101246.17
2019-02-15T23:27:28.785Z,101247.84
2019-02-15T23:29:59.261Z,101246.00
2019-02-15T23:32:29.768Z,101244.34
2019-02-15T23:35:00.324Z,101241.64
2019-02-15T23:37:30.803Z,101243.14
2019-02-15T23:40:01.310Z,101239.61
2019-02-15T23:42:31.823Z,101239.61
2019-02-15T23:45:02.322Z,101237.59
2019-02-15T23:47:32.782Z,101231.53
2019-02-15T23:50:03.243Z,101228.16
2019-02-15T23:52:33.751Z,101225.47
2019-02-15T23:55:04.311Z,101223.29
2019-02-15T23:57:34.808Z,101227.65
